createdAt,value
2019-03-05T00:00:24.659Z,936.85
2019-03-05T00:01:24.639Z,936.88
2019-03-05T00:02:24.647Z,936.91
2019-03-05T00:03:24.626Z,936.90
2019-03-05T00:04:24.637Z,936.91
2019-03-05T00:05:24.627Z,936.92
2019-03-05T00:06:24.618Z,936.89
2019-03-05T00:07:24.591Z,936.92
2019-03-05T00:08:24.609Z,936.95
2019-03-05T00:09:24.574Z,936.95
2019-03-05T00:10:24.588Z,936.97
2019-03-05T00:11:24.596Z,936.99
2019-03-05T00:12:24.565Z,937.02
2019-03-05T00:13:24.579Z,937.02
2019-03-05T00:14:24.557Z,937.01
2019-03-05T00:15:24.562Z,937.04
2019-03-05T00:16:24.521Z,937.00
2019-03-05T00:17:24.520Z,937.01
2019-03-05T00:18:24.541Z,937.03
2019-03-05T00:19:24.525Z,937.05
2019-03-05T00:20:50.210Z,937.09
2019-03-05T00:21:24.734Z,937.03
2019-03-05T00:22:25.731Z,937.03
2019-03-05T00:23:25.718Z,937.04
2019-03-05T00:24:25.915Z,937.08
2019-03-05T00:25:25.902Z,937.08
2019-03-05T00:26:24.690Z,937.09
2019-03-05T00:27:25.697Z,937.06
2019-03-05T00:28:24.470Z,937.05
2019-03-05T00:29:24.683Z,937.11
2019-03-05T00:30:24.459Z,937.10
2019-03-05T00:31:25.663Z,937.06
2019-03-05T00:32:24.654Z,937.08
2019-03-05T00:33:24.642Z,937.06
2019-03-05T00:34:25.662Z,937.06
2019-03-05T00:35:50.101Z,937.06
2019-03-05T00:36:24.620Z,937.06
2019-03-05T00:37:25.840Z,937.06
2019-03-05T00:38:25.821Z,937.07
2019-03-05T00:39:24.417Z,937.12
2019-03-05T00:40:24.610Z,937.16
2019-03-05T00:41:24.366Z,937.15
2019-03-05T00:42:24.392Z,937.19
2019-03-05T00:43:24.362Z,937.20
2019-03-05T00:44:24.356Z,937.18
2019-03-05T00:45:24.342Z,937.20
2019-03-05T00:46:24.343Z,937.16
2019-03-05T00:47:24.556Z,937.24
2019-03-05T00:48:24.333Z,937.24
2019-03-05T00:49:24.340Z,937.24
2019-03-05T00:50:24.310Z,937.27
2019-03-05T00:51:25.236Z,937.21
2019-03-05T00:52:24.292Z,937.23
2019-03-05T00:53:24.310Z,937.28
2019-03-05T00:54:24.312Z,937.27
2019-03-05T00:55:24.285Z,937.29
2019-03-05T00:56:24.291Z,937.31
2019-03-05T00:57:24.262Z,937.31
2019-03-05T00:58:24.262Z,937.35
2019-03-05T00:59:24.257Z,937.36
2019-03-05T01:00:24.279Z,937.41
2019-03-05T01:01:24.244Z,937.41
2019-03-05T01:02:24.252Z,937.37
2019-03-05T01:03:24.238Z,937.38
2019-03-05T01:04:24.236Z,937.36
2019-03-05T01:05:24.211Z,937.39
2019-03-05T01:06:24.227Z,937.42
2019-03-05T01:07:24.186Z,937.42
2019-03-05T01:08:24.214Z,937.45
2019-03-05T01:09:24.205Z,937.47
2019-03-05T01:10:24.178Z,937.46
2019-03-05T01:11:24.189Z,937.45
2019-03-05T01:12:24.166Z,937.44
2019-03-05T01:13:24.181Z,937.44
2019-03-05T01:14:24.167Z,937.42
2019-03-05T01:15:24.165Z,937.40
2019-03-05T01:16:24.146Z,937.42
2019-03-05T01:17:24.136Z,937.44
2019-03-05T01:18:24.152Z,937.46
2019-03-05T01:19:24.133Z,937.47
2019-03-05T01:20:24.129Z,937.49
2019-03-05T01:21:24.110Z,937.52
2019-03-05T01:22:24.108Z,937.51
2019-03-05T01:23:24.095Z,937.53
2019-03-05T01:24:24.114Z,937.49
2019-03-05T01:25:24.093Z,937.50
2019-03-05T01:26:24.088Z,937.52
2019-03-05T01:27:24.082Z,937.51
2019-03-05T01:28:24.070Z,937.51
2019-03-05T01:29:24.285Z,937.51
2019-03-05T01:30:24.069Z,937.53
2019-03-05T01:31:24.058Z,937.53
2019-03-05T01:32:24.051Z,937.57
2019-03-05T01:33:24.020Z,937.52
2019-03-05T01:34:24.030Z,937.53
2019-03-05T01:35:24.037Z,937.49
2019-03-05T01:36:24.021Z,937.46
2019-03-05T01:37:24.001Z,937.48
2019-03-05T01:38:24.018Z,937.44
2019-03-05T01:39:24.005Z,937.42
2019-03-05T01:40:23.994Z,937.34
2019-03-05T01:41:23.980Z,937.33
2019-03-05T01:42:23.970Z,937.33
2019-03-05T01:43:23.963Z,937.34
2019-03-05T01:44:23.964Z,937.33
2019-03-05T01:45:23.975Z,937.28
2019-03-05T01:46:23.956Z,937.26
2019-03-05T01:47:23.943Z,937.21
2019-03-05T01:48:23.942Z,937.20
2019-03-05T01:49:23.928Z,937.21
2019-03-05T01:50:23.938Z,937.21
2019-03-05T01:51:23.933Z,937.25
2019-03-05T01:52:23.937Z,937.27
2019-03-05T01:53:23.905Z,937.20
2019-03-05T01:54:23.897Z,937.23
2019-03-05T01:55:23.877Z,937.27
2019-03-05T01:56:23.887Z,937.26
2019-03-05T01:57:23.877Z,937.24
2019-03-05T01:58:23.868Z,937.22
2019-03-05T01:59:23.865Z,937.21
2019-03-05T02:00:23.858Z,937.21
2019-03-05T02:01:23.847Z,937.26
2019-03-05T02:02:23.909Z,937.24
2019-03-05T02:03:23.840Z,937.28
2019-03-05T02:04:23.826Z,937.30
2019-03-05T02:05:23.828Z,937.30
2019-03-05T02:06:23.808Z,937.28
2019-03-05T02:07:23.827Z,937.28
2019-03-05T02:08:23.810Z,937.27
2019-03-05T02:09:23.813Z,937.30
2019-03-05T02:10:23.799Z,937.29
2019-03-05T02:11:23.793Z,937.27
2019-03-05T02:12:23.783Z,937.29
2019-03-05T02:13:23.768Z,937.30
2019-03-05T02:14:23.785Z,937.34
2019-03-05T02:15:23.769Z,937.32
2019-03-05T02:16:23.742Z,937.30
2019-03-05T02:17:23.766Z,937.31
2019-03-05T02:18:23.759Z,937.29
2019-03-05T02:19:23.730Z,937.34
2019-03-05T02:20:23.737Z,937.35
2019-03-05T02:21:23.736Z,937.32
2019-03-05T02:22:23.709Z,937.32
2019-03-05T02:23:23.707Z,937.31
2019-03-05T02:24:23.695Z,937.32
2019-03-05T02:25:23.703Z,937.26
2019-03-05T02:26:23.701Z,937.27
2019-03-05T02:27:23.697Z,937.24
2019-03-05T02:28:23.677Z,937.25
2019-03-05T02:29:23.667Z,937.20
2019-03-05T02:30:23.676Z,937.23
2019-03-05T02:31:23.643Z,937.22
2019-03-05T02:32:23.652Z,937.19
2019-03-05T02:33:23.649Z,937.22
2019-03-05T02:34:23.647Z,937.20
2019-03-05T02:35:23.630Z,937.17
2019-03-05T02:36:23.614Z,937.13
2019-03-05T02:37:23.603Z,937.15
2019-03-05T02:38:23.613Z,937.13
2019-03-05T02:39:23.600Z,937.16
2019-03-05T02:40:23.620Z,937.16
2019-03-05T02:41:23.599Z,937.13
2019-03-05T02:42:23.590Z,937.18
2019-03-05T02:43:23.586Z,937.14
2019-03-05T02:44:23.570Z,937.16
2019-03-05T02:45:23.566Z,937.20
2019-03-05T02:46:23.549Z,937.21
2019-03-05T02:47:23.532Z,937.22
2019-03-05T02:48:23.545Z,937.21
2019-03-05T02:49:23.526Z,937.21
2019-03-05T02:50:23.564Z,937.18
2019-03-05T02:51:23.505Z,937.15
2019-03-05T02:52:23.515Z,937.16
2019-03-05T02:53:23.522Z,937.16
2019-03-05T02:54:23.503Z,937.17
2019-03-05T02:55:23.499Z,937.18
2019-03-05T02:56:23.479Z,937.17
2019-03-05T02:57:23.500Z,937.13
2019-03-05T02:58:23.504Z,937.12
2019-03-05T02:59:23.489Z,937.13
2019-03-05T03:00:23.450Z,937.11
2019-03-05T03:01:23.458Z,937.12
2019-03-05T03:02:23.447Z,937.06
2019-03-05T03:03:23.452Z,937.06
2019-03-05T03:04:23.457Z,937.12
2019-03-05T03:05:23.441Z,937.07
2019-03-05T03:06:23.442Z,937.09
2019-03-05T03:07:23.426Z,937.11
2019-03-05T03:08:23.632Z,937.11
2019-03-05T03:09:23.415Z,937.10
2019-03-05T03:10:23.408Z,937.07
2019-03-05T03:11:23.398Z,937.04
2019-03-05T03:12:23.390Z,937.08
2019-03-05T03:13:23.393Z,937.04
2019-03-05T03:14:23.374Z,937.02
2019-03-05T03:15:23.390Z,937.03
2019-03-05T03:16:23.375Z,937.02
2019-03-05T03:17:23.345Z,937.00
2019-03-05T03:18:23.553Z,937.06
2019-03-05T03:19:23.337Z,937.03
2019-03-05T03:20:23.330Z,937.02
2019-03-05T03:21:23.318Z,937.02
2019-03-05T03:22:23.329Z,937.06
2019-03-05T03:23:23.312Z,937.05
2019-03-05T03:24:23.301Z,937.08
2019-03-05T03:25:23.295Z,937.04
2019-03-05T03:26:23.308Z,937.08
2019-03-05T03:27:23.297Z,937.06
2019-03-05T03:28:23.292Z,937.08
2019-03-05T03:29:23.292Z,937.04
2019-03-05T03:30:23.286Z,937.01
2019-03-05T03:31:23.266Z,937.03
2019-03-05T03:32:23.265Z,936.98
2019-03-05T03:33:23.262Z,937.05
2019-03-05T03:34:23.236Z,937.03
2019-03-05T03:35:23.227Z,937.00
2019-03-05T03:36:23.232Z,937.01
2019-03-05T03:37:23.277Z,937.02
2019-03-05T03:38:23.406Z,937.04
2019-03-05T03:39:23.208Z,937.00
2019-03-05T03:40:23.204Z,936.96
2019-03-05T03:41:23.190Z,936.94
2019-03-05T03:42:23.191Z,936.91
2019-03-05T03:43:23.162Z,936.92
2019-03-05T03:44:23.179Z,936.90
2019-03-05T03:45:23.162Z,936.95
2019-03-05T03:46:23.153Z,936.91
2019-03-05T03:47:23.153Z,936.92
2019-03-05T03:48:23.145Z,936.90
2019-03-05T03:49:23.115Z,936.90
2019-03-05T03:50:23.126Z,936.90
2019-03-05T03:51:23.135Z,936.87
2019-03-05T03:52:23.128Z,936.91
2019-03-05T03:53:23.116Z,936.84
2019-03-05T03:54:23.120Z,936.87
2019-03-05T03:55:23.097Z,936.88
2019-03-05T03:56:23.090Z,936.91
2019-03-05T03:57:23.080Z,936.85
2019-03-05T03:58:23.054Z,936.84
2019-03-05T03:59:23.064Z,936.82
2019-03-05T04:00:23.062Z,936.79
2019-03-05T04:01:23.053Z,936.80
2019-03-05T04:02:23.056Z,936.79
2019-03-05T04:03:23.034Z,936.78
2019-03-05T04:04:23.029Z,936.77
2019-03-05T04:05:23.027Z,936.74
2019-03-05T04:06:23.025Z,936.77
2019-03-05T04:07:23.025Z,936.78
2019-03-05T04:08:23.008Z,936.77
2019-03-05T04:09:23.011Z,936.71
2019-03-05T04:10:23.026Z,936.74
2019-03-05T04:11:23.000Z,936.70
2019-03-05T04:12:22.973Z,936.71
2019-03-05T04:13:22.973Z,936.72
2019-03-05T04:14:22.961Z,936.66
2019-03-05T04:15:23.022Z,936.67
2019-03-05T04:16:23.007Z,936.68
2019-03-05T04:17:22.946Z,936.71
2019-03-05T04:18:22.950Z,936.68
2019-03-05T04:19:22.944Z,936.65
2019-03-05T04:20:22.936Z,936.69
2019-03-05T04:21:23.116Z,936.71
2019-03-05T04:22:23.126Z,936.72
2019-03-05T04:23:22.904Z,936.70
2019-03-05T04:24:22.925Z,936.75
2019-03-05T04:25:23.093Z,936.71
2019-03-05T04:26:22.884Z,936.73
2019-03-05T04:27:22.889Z,936.69
2019-03-05T04:28:22.865Z,936.72
2019-03-05T04:29:23.052Z,936.71
2019-03-05T04:30:22.846Z,936.73
2019-03-05T04:31:22.843Z,936.74
2019-03-05T04:32:23.882Z,936.72
2019-03-05T04:33:22.879Z,936.76
2019-03-05T04:34:22.803Z,936.72
2019-03-05T04:35:22.798Z,936.71
2019-03-05T04:36:22.825Z,936.70
2019-03-05T04:37:22.785Z,936.68
2019-03-05T04:38:22.805Z,936.71
2019-03-05T04:39:22.806Z,936.67
2019-03-05T04:40:22.797Z,936.69
2019-03-05T04:41:22.786Z,936.70
2019-03-05T04:44:19.262Z,936.66
2019-03-05T04:45:11.419Z,936.64
2019-03-05T04:47:49.963Z,936.59
2019-03-05T04:48:50.002Z,936.63
2019-03-05T04:49:49.940Z,936.59
2019-03-05T04:50:49.924Z,936.56
2019-03-05T04:51:49.924Z,936.58
2019-03-05T04:52:49.917Z,936.55
2019-03-05T04:53:49.913Z,936.54
2019-03-05T04:54:49.888Z,936.51
2019-03-05T04:55:49.902Z,936.50
2019-03-05T04:56:49.882Z,936.45
2019-03-05T04:57:49.867Z,936.42
2019-03-05T04:58:49.876Z,936.39
2019-03-05T04:59:49.856Z,936.41
2019-03-05T05:00:49.866Z,936.39
2019-03-05T05:01:49.839Z,936.42
2019-03-05T05:02:49.820Z,936.39
2019-03-05T05:03:49.839Z,936.42
2019-03-05T05:04:49.833Z,936.38
2019-03-05T05:05:49.819Z,936.39
2019-03-05T05:06:49.791Z,936.37
2019-03-05T05:07:49.813Z,936.39
2019-03-05T05:08:49.816Z,936.38
2019-03-05T05:09:49.794Z,936.36
2019-03-05T05:10:49.772Z,936.34
2019-03-05T05:13:33.388Z,936.33
2019-03-05T05:14:33.373Z,936.32
2019-03-05T05:15:33.373Z,936.29
2019-03-05T05:17:25.780Z,936.32
2019-03-05T05:17:33.360Z,936.29
2019-03-05T05:18:33.344Z,936.32
2019-03-05T05:19:33.321Z,936.30
2019-03-05T05:20:33.334Z,936.28
2019-03-05T05:21:33.314Z,936.28
2019-03-05T05:22:33.297Z,936.28
2019-03-05T05:23:33.305Z,936.27
2019-03-05T05:24:33.287Z,936.26
2019-03-05T05:25:33.299Z,936.24
2019-03-05T05:26:33.272Z,936.22
2019-03-05T05:27:33.250Z,936.27
2019-03-05T05:28:33.270Z,936.23
2019-03-05T05:29:33.267Z,936.25
2019-03-05T05:30:33.250Z,936.26
2019-03-05T05:31:33.220Z,936.27
2019-03-05T05:32:33.241Z,936.27
2019-03-05T05:33:33.239Z,936.25
2019-03-05T05:34:33.432Z,936.28
2019-03-05T05:35:33.191Z,936.23
2019-03-05T05:36:33.201Z,936.24
2019-03-05T05:37:33.215Z,936.24
2019-03-05T05:38:33.191Z,936.25
2019-03-05T05:39:33.187Z,936.23
2019-03-05T05:40:33.183Z,936.26
2019-03-05T05:41:33.173Z,936.25
2019-03-05T05:42:33.161Z,936.25
2019-03-05T05:43:33.170Z,936.27
2019-03-05T05:44:33.146Z,936.27
2019-03-05T05:45:33.149Z,936.26
2019-03-05T05:46:33.121Z,936.26
2019-03-05T05:47:33.115Z,936.23
2019-03-05T05:48:33.116Z,936.20
2019-03-05T05:49:33.103Z,936.19
2019-03-05T05:50:33.110Z,936.21
2019-03-05T05:51:33.084Z,936.18
2019-03-05T05:52:33.087Z,936.17
2019-03-05T05:53:33.070Z,936.16
2019-03-05T05:54:33.064Z,936.16
2019-03-05T05:55:33.076Z,936.14
2019-03-05T05:56:33.043Z,936.12
2019-03-05T05:57:35.768Z,936.11
2019-03-05T05:58:33.058Z,936.10
2019-03-05T05:59:33.032Z,936.09
2019-03-05T06:00:33.040Z,936.07
2019-03-05T06:01:33.014Z,936.10
2019-03-05T06:02:33.025Z,936.09
2019-03-05T06:03:33.018Z,936.12
2019-03-05T06:04:33.004Z,936.08
2019-03-05T06:05:32.999Z,936.12
2019-03-05T06:06:32.997Z,936.13
2019-03-05T06:07:32.990Z,936.12
2019-03-05T06:08:32.947Z,936.11
2019-03-05T06:09:32.968Z,936.10
2019-03-05T06:10:32.958Z,936.10
2019-03-05T06:11:32.942Z,936.08
2019-03-05T06:12:32.939Z,936.09
2019-03-05T06:13:32.937Z,936.08
2019-03-05T06:14:32.922Z,936.04
2019-03-05T06:15:32.930Z,936.01
2019-03-05T06:16:32.918Z,936.03
2019-03-05T06:17:32.917Z,936.00
2019-03-05T06:18:32.894Z,936.01
2019-03-05T06:19:32.900Z,935.98
2019-03-05T06:20:32.893Z,935.95
2019-03-05T06:21:32.864Z,935.97
2019-03-05T06:22:32.858Z,935.96
2019-03-05T06:23:32.856Z,935.95
2019-03-05T06:24:32.861Z,935.92
2019-03-05T06:25:32.832Z,935.87
2019-03-05T06:26:32.833Z,935.86
2019-03-05T06:27:32.844Z,935.85
2019-03-05T06:28:32.820Z,935.86
2019-03-05T06:29:32.816Z,935.84
2019-03-05T06:30:32.792Z,935.83
2019-03-05T06:31:32.809Z,935.86
2019-03-05T06:32:32.779Z,935.85
2019-03-05T06:33:32.784Z,935.81
2019-03-05T06:34:32.769Z,935.83
2019-03-05T06:35:32.750Z,935.83
2019-03-05T06:36:32.776Z,935.80
2019-03-05T06:37:33.180Z,935.78
2019-03-05T06:38:32.759Z,935.83
2019-03-05T06:39:32.740Z,935.82
2019-03-05T06:40:32.731Z,935.85
2019-03-05T06:41:32.713Z,935.80
2019-03-05T06:42:32.711Z,935.82
2019-03-05T06:43:32.701Z,935.87
2019-03-05T06:44:32.714Z,935.86
2019-03-05T06:45:32.702Z,935.84
2019-03-05T06:46:32.730Z,935.85
2019-03-05T06:47:32.669Z,935.80
2019-03-05T06:48:32.664Z,935.82
2019-03-05T06:49:32.647Z,935.83
2019-03-05T06:50:32.675Z,935.83
2019-03-05T06:51:32.652Z,935.83
2019-03-05T06:52:32.660Z,935.82
2019-03-05T06:53:32.632Z,935.84
2019-03-05T06:54:32.639Z,935.83
2019-03-05T06:55:32.644Z,935.79
2019-03-05T06:56:32.639Z,935.79
2019-03-05T06:57:32.618Z,935.73
2019-03-05T06:58:32.596Z,935.73
2019-03-05T06:59:32.588Z,935.69
2019-03-05T07:00:32.575Z,935.69
2019-03-05T07:01:32.566Z,935.67
2019-03-05T07:02:32.589Z,935.67
2019-03-05T07:03:32.581Z,935.70
2019-03-05T07:04:32.573Z,935.67
2019-03-05T07:05:32.566Z,935.68
2019-03-05T07:06:32.537Z,935.68
2019-03-05T07:07:32.540Z,935.72
2019-03-05T07:08:32.512Z,935.73
2019-03-05T07:09:32.531Z,935.70
2019-03-05T07:10:32.529Z,935.72
2019-03-05T07:11:32.499Z,935.68
2019-03-05T07:14:22.383Z,935.69
2019-03-05T07:15:16.102Z,935.70
2019-03-05T07:16:16.304Z,935.71
2019-03-05T07:17:52.331Z,935.70
2019-03-05T07:18:16.080Z,935.69
2019-03-05T07:19:16.074Z,935.68
2019-03-05T07:20:16.050Z,935.67
2019-03-05T07:21:16.064Z,935.69
2019-03-05T07:22:16.045Z,935.69
2019-03-05T07:23:16.054Z,935.67
2019-03-05T07:24:16.037Z,935.70
2019-03-05T07:25:16.018Z,935.71
2019-03-05T07:26:16.030Z,935.66
2019-03-05T07:27:16.006Z,935.69
2019-03-05T07:28:15.982Z,935.64
2019-03-05T07:29:17.990Z,935.64
2019-03-05T07:30:15.994Z,935.64
2019-03-05T07:31:15.981Z,935.62
2019-03-05T07:32:16.030Z,935.61
2019-03-05T07:33:15.976Z,935.58
2019-03-05T07:34:15.977Z,935.61
2019-03-05T07:35:15.948Z,935.64
2019-03-05T07:36:15.924Z,935.60
2019-03-05T07:37:15.934Z,935.64
2019-03-05T07:38:15.950Z,935.59
2019-03-05T07:39:15.927Z,935.62
2019-03-05T07:40:15.927Z,935.66
2019-03-05T07:41:15.914Z,935.62
2019-03-05T07:42:15.909Z,935.65
2019-03-05T07:43:16.151Z,935.63
2019-03-05T07:44:15.907Z,935.65
2019-03-05T07:45:15.881Z,935.69
2019-03-05T07:46:15.891Z,935.67
2019-03-05T07:47:15.857Z,935.62
2019-03-05T07:48:15.852Z,935.64
2019-03-05T07:49:15.852Z,935.65
2019-03-05T07:50:15.837Z,935.66
2019-03-05T07:51:15.843Z,935.64
2019-03-05T07:52:15.820Z,935.66
2019-03-05T07:53:15.820Z,935.68
2019-03-05T07:54:15.808Z,935.65
2019-03-05T07:55:15.801Z,935.68
2019-03-05T07:56:15.813Z,935.68
2019-03-05T07:57:15.780Z,935.69
2019-03-05T07:58:15.774Z,935.68
2019-03-05T07:59:15.875Z,935.70
2019-03-05T08:00:15.772Z,935.69
2019-03-05T08:01:22.311Z,935.71
2019-03-05T08:02:15.755Z,935.72
2019-03-05T08:03:15.763Z,935.68
2019-03-05T08:04:15.757Z,935.67
2019-03-05T08:05:15.743Z,935.69
2019-03-05T08:06:15.731Z,935.67
2019-03-05T08:07:15.735Z,935.71
2019-03-05T08:08:26.174Z,935.75
2019-03-05T08:09:15.688Z,935.71
2019-03-05T08:10:15.730Z,935.73
2019-03-05T08:11:15.699Z,935.77
2019-03-05T08:12:15.681Z,935.78
2019-03-05T08:13:15.681Z,935.81
2019-03-05T08:14:15.677Z,935.82
2019-03-05T08:15:15.663Z,935.83
2019-03-05T08:16:15.671Z,935.82
2019-03-05T08:17:15.658Z,935.86
2019-03-05T08:18:15.652Z,935.87
2019-03-05T08:19:15.634Z,935.90
2019-03-05T08:20:15.642Z,935.88
2019-03-05T08:21:15.636Z,935.94
2019-03-05T08:22:15.607Z,935.99
2019-03-05T08:23:15.598Z,935.99
2019-03-05T08:24:15.596Z,935.98
2019-03-05T08:25:15.600Z,936.00
2019-03-05T08:26:15.569Z,935.99
2019-03-05T08:27:15.579Z,935.97
2019-03-05T08:28:15.585Z,936.01
2019-03-05T08:29:15.562Z,936.02
2019-03-05T08:30:15.557Z,935.97
2019-03-05T08:31:15.532Z,936.00
2019-03-05T08:32:15.549Z,936.01
2019-03-05T08:33:15.523Z,936.01
2019-03-05T08:34:15.526Z,936.01
2019-03-05T08:35:15.511Z,935.99
2019-03-05T08:36:15.491Z,935.97
2019-03-05T08:37:15.518Z,936.00
2019-03-05T08:38:15.509Z,935.98
2019-03-05T08:39:15.503Z,935.99
2019-03-05T08:40:15.477Z,936.00
2019-03-05T08:41:15.472Z,936.02
2019-03-05T08:42:15.453Z,936.04
2019-03-05T08:43:15.452Z,936.04
2019-03-05T08:44:15.443Z,936.04
2019-03-05T08:45:15.454Z,936.03
2019-03-05T08:46:15.443Z,936.06
2019-03-05T08:47:15.449Z,936.06
2019-03-05T08:48:15.408Z,936.09
2019-03-05T08:49:17.798Z,936.07
2019-03-05T08:50:15.388Z,936.06
2019-03-05T08:51:15.416Z,936.09
2019-03-05T08:52:15.490Z,936.14
2019-03-05T08:53:15.399Z,936.13
2019-03-05T08:54:15.374Z,936.11
2019-03-05T08:55:15.377Z,936.13
2019-03-05T08:56:15.377Z,936.08
2019-03-05T08:57:15.370Z,936.15
2019-03-05T08:58:15.359Z,936.15
2019-03-05T08:59:15.342Z,936.17
2019-03-05T09:00:15.326Z,936.21
2019-03-05T09:01:15.313Z,936.21
2019-03-05T09:02:15.305Z,936.23
2019-03-05T09:03:15.326Z,936.27
2019-03-05T09:04:15.320Z,936.25
2019-03-05T09:05:15.313Z,936.26
2019-03-05T09:06:15.305Z,936.30
2019-03-05T09:07:15.275Z,936.27
2019-03-05T09:08:15.278Z,936.27
2019-03-05T09:09:15.250Z,936.28
2019-03-05T09:10:15.262Z,936.29
2019-03-05T09:11:15.260Z,936.30
2019-03-05T09:12:15.227Z,936.37
2019-03-05T09:13:15.242Z,936.37
2019-03-05T09:14:15.250Z,936.41
2019-03-05T09:15:15.233Z,936.45
2019-03-05T09:16:15.206Z,936.46
2019-03-05T09:17:15.206Z,936.52
2019-03-05T09:18:15.191Z,936.47
2019-03-05T09:19:15.189Z,936.51
2019-03-05T09:20:15.190Z,936.50
2019-03-05T09:21:15.169Z,936.48
2019-03-05T09:22:15.172Z,936.49
2019-03-05T09:23:15.169Z,936.48
2019-03-05T09:24:15.161Z,936.52
2019-03-05T09:25:15.162Z,936.49
2019-03-05T09:26:15.154Z,936.51
2019-03-05T09:27:15.132Z,936.56
2019-03-05T09:28:15.114Z,936.57
2019-03-05T09:29:15.122Z,936.55
2019-03-05T09:30:15.131Z,936.62
2019-03-05T09:31:15.107Z,936.62
2019-03-05T09:32:15.091Z,936.62
2019-03-05T09:33:15.091Z,936.67
2019-03-05T09:34:15.091Z,936.68
2019-03-05T09:35:15.104Z,936.68
2019-03-05T09:36:15.068Z,936.69
2019-03-05T09:37:15.077Z,936.68
2019-03-05T09:38:15.077Z,936.72
2019-03-05T09:39:15.036Z,936.71
2019-03-05T09:40:15.055Z,936.76
2019-03-05T09:41:15.048Z,936.73
2019-03-05T09:42:15.016Z,936.77
2019-03-05T09:43:15.035Z,936.75
2019-03-05T09:44:15.033Z,936.77
2019-03-05T09:45:14.996Z,936.81
2019-03-05T09:46:15.028Z,936.84
2019-03-05T09:47:14.997Z,936.82
2019-03-05T09:48:14.973Z,936.85
2019-03-05T09:49:14.980Z,936.84
2019-03-05T09:50:14.988Z,936.84
2019-03-05T09:51:14.975Z,936.84
2019-03-05T09:52:14.957Z,936.84
2019-03-05T09:53:14.972Z,936.85
2019-03-05T09:54:14.967Z,936.89
2019-03-05T09:55:14.947Z,936.89
2019-03-05T09:56:14.943Z,936.93
2019-03-05T09:57:14.930Z,936.92
2019-03-05T09:58:14.931Z,936.97
2019-03-05T09:59:14.930Z,936.99
2019-03-05T10:00:14.958Z,936.97
2019-03-05T10:01:14.910Z,937.00
2019-03-05T10:02:14.885Z,937.03
2019-03-05T10:03:14.908Z,937.06
2019-03-05T10:04:14.886Z,937.03
2019-03-05T10:05:15.102Z,937.06
2019-03-05T10:06:14.878Z,937.04
2019-03-05T10:07:18.883Z,937.09
2019-03-05T10:08:14.859Z,937.08
2019-03-05T10:09:14.853Z,937.09
2019-03-05T10:10:14.841Z,937.09
2019-03-05T10:11:14.844Z,937.11
2019-03-05T10:12:14.842Z,937.12
2019-03-05T10:13:14.837Z,937.11
2019-03-05T10:14:14.815Z,937.10
2019-03-05T10:15:14.828Z,937.12
2019-03-05T10:16:14.804Z,937.15
2019-03-05T10:17:14.796Z,937.17
2019-03-05T10:18:14.803Z,937.15
2019-03-05T10:19:14.774Z,937.18
2019-03-05T10:20:14.761Z,937.20
2019-03-05T10:21:25.169Z,937.17
2019-03-05T10:22:14.973Z,937.21
2019-03-05T10:23:14.742Z,937.22
2019-03-05T10:24:14.753Z,937.21
2019-03-05T10:25:14.736Z,937.24
2019-03-05T10:26:14.742Z,937.23
2019-03-05T10:27:14.745Z,937.22
2019-03-05T10:28:14.713Z,937.24
2019-03-05T10:29:14.720Z,937.24
2019-03-05T10:30:24.405Z,937.23
2019-03-05T10:31:14.714Z,937.26
2019-03-05T10:32:14.709Z,937.30
2019-03-05T10:33:14.676Z,937.26
2019-03-05T10:34:14.681Z,937.27
2019-03-05T10:35:14.692Z,937.29
2019-03-05T10:36:14.683Z,937.30
2019-03-05T10:37:18.707Z,937.29
2019-03-05T10:38:14.669Z,937.32
2019-03-05T10:39:14.670Z,937.32
2019-03-05T10:40:14.634Z,937.37
2019-03-05T10:41:14.635Z,937.37
2019-03-05T10:42:14.630Z,937.37
2019-03-05T10:43:14.628Z,937.39
2019-03-05T10:44:14.838Z,937.39
2019-03-05T10:45:15.827Z,937.37
2019-03-05T10:46:14.595Z,937.43
2019-03-05T10:47:14.593Z,937.41
2019-03-05T10:48:14.609Z,937.41
2019-03-05T10:49:14.582Z,937.45
2019-03-05T10:50:15.589Z,937.47
2019-03-05T10:51:14.568Z,937.45
2019-03-05T10:52:14.566Z,937.51
2019-03-05T10:53:14.563Z,937.48
2019-03-05T10:54:14.558Z,937.50
2019-03-05T10:55:25.729Z,937.51
2019-03-05T10:56:14.552Z,937.50
2019-03-05T10:57:14.528Z,937.52
2019-03-05T10:58:14.531Z,937.54
2019-03-05T10:59:14.513Z,937.54
2019-03-05T11:00:14.539Z,937.54
2019-03-05T11:01:14.495Z,937.52
2019-03-05T11:02:14.510Z,937.55
2019-03-05T11:03:14.487Z,937.57
2019-03-05T11:04:14.483Z,937.56
2019-03-05T11:05:14.478Z,937.55
2019-03-05T11:06:14.484Z,937.61
2019-03-05T11:07:14.618Z,937.64
2019-03-05T11:08:14.455Z,937.63
2019-03-05T11:09:14.460Z,937.63
2019-03-05T11:10:14.434Z,937.67
2019-03-05T11:11:14.460Z,937.66
2019-03-05T11:12:14.529Z,937.66
2019-03-05T11:13:14.422Z,937.67
2019-03-05T11:14:14.426Z,937.68
2019-03-05T11:15:14.417Z,937.70
2019-03-05T11:16:14.398Z,937.71
2019-03-05T11:17:14.396Z,937.69
2019-03-05T11:18:14.400Z,937.71
2019-03-05T11:19:14.379Z,937.69
2019-03-05T11:20:14.395Z,937.72
2019-03-05T11:21:14.368Z,937.71
2019-03-05T11:22:14.379Z,937.77
2019-03-05T11:23:14.365Z,937.76
2019-03-05T11:24:14.354Z,937.77
2019-03-05T11:25:14.393Z,937.79
2019-03-05T11:26:14.356Z,937.78
2019-03-05T11:27:14.314Z,937.77
2019-03-05T11:28:14.349Z,937.77
2019-03-05T11:29:14.321Z,937.79
2019-03-05T11:30:14.329Z,937.81
2019-03-05T11:31:14.316Z,937.78
2019-03-05T11:32:14.299Z,937.81
2019-03-05T11:33:14.318Z,937.78
2019-03-05T11:34:14.301Z,937.78
2019-03-05T11:35:14.292Z,937.79
2019-03-05T11:36:14.273Z,937.83
2019-03-05T11:37:14.287Z,937.82
2019-03-05T11:38:14.268Z,937.85
2019-03-05T11:39:14.262Z,937.84
2019-03-05T11:40:21.115Z,937.86
2019-03-05T11:41:14.242Z,937.88
2019-03-05T11:42:14.258Z,937.83
2019-03-05T11:43:14.233Z,937.91
2019-03-05T11:44:14.244Z,937.88
2019-03-05T11:45:14.224Z,937.91
2019-03-05T11:46:14.233Z,937.86
2019-03-05T11:47:14.225Z,937.89
2019-03-05T11:48:14.217Z,937.93
2019-03-05T11:49:14.189Z,937.88
2019-03-05T11:50:14.210Z,937.89
2019-03-05T11:51:14.176Z,937.90
2019-03-05T11:52:14.182Z,937.88
2019-03-05T11:53:14.199Z,937.87
2019-03-05T11:54:14.171Z,937.89
2019-03-05T11:55:14.182Z,937.89
2019-03-05T11:56:14.164Z,937.86
2019-03-05T11:57:14.169Z,937.90
2019-03-05T11:58:14.130Z,937.90
2019-03-05T11:59:14.130Z,937.89
2019-03-05T12:00:14.151Z,937.89
2019-03-05T12:01:14.137Z,937.94
2019-03-05T12:02:21.460Z,937.92
2019-03-05T12:03:14.137Z,937.96
2019-03-05T12:04:14.110Z,937.94
2019-03-05T12:05:14.100Z,937.92
2019-03-05T12:06:14.104Z,937.94
2019-03-05T12:07:14.094Z,937.92
2019-03-05T12:08:14.096Z,937.92
2019-03-05T12:09:14.104Z,937.90
2019-03-05T12:10:14.084Z,937.87
2019-03-05T12:11:14.095Z,937.84
2019-03-05T12:12:14.075Z,937.86
2019-03-05T12:13:14.673Z,937.84
2019-03-05T12:14:14.071Z,937.82
2019-03-05T12:15:14.056Z,937.87
2019-03-05T12:16:14.055Z,937.86
2019-03-05T12:17:14.046Z,937.82
2019-03-05T12:18:14.041Z,937.84
2019-03-05T12:19:14.045Z,937.82
2019-03-05T12:20:14.043Z,937.81
2019-03-05T12:21:14.037Z,937.79
2019-03-05T12:22:14.033Z,937.81
2019-03-05T12:23:13.999Z,937.81
2019-03-05T12:24:14.022Z,937.83
2019-03-05T12:25:13.995Z,937.78
2019-03-05T12:26:13.997Z,937.81
2019-03-05T12:27:13.984Z,937.75
2019-03-05T12:28:13.988Z,937.79
2019-03-05T12:29:13.997Z,937.77
2019-03-05T12:30:13.979Z,937.74
2019-03-05T12:31:13.982Z,937.74
2019-03-05T12:32:15.363Z,937.75
2019-03-05T12:33:13.971Z,937.73
2019-03-05T12:34:13.942Z,937.77
2019-03-05T12:35:13.955Z,937.74